sensor_id;sensor_type;location;lat;lon;timestamp;pressure;altitude;pressure_sealevel;temperature;humidity
55590;BME280;41452;42.780;23.116;2023-09-19T00:25:03;94756.47;;;13.23;99.00
55590;BME280;41452;42.780;23.116;2023-09-19T00:27:30;94765.78;;;13.13;100.00
55590;BME280;41452;42.780;23.116;2023-09-19T00:29:56;94762.25;;;13.08;100.00
55590;BME280;41452;42.780;23.116;2023-09-19T00:32:21;94764.81;;;13.03;100.00
55590;BME280;41452;42.780;23.116;2023-09-19T00:34:46;94760.94;;;12.93;100.00
55590;BME280;41452;42.780;23.116;2023-09-19T00:37:12;94758.63;;;12.97;100.00
55590;BME280;41452;42.780;23.116;2023-09-19T00:39:38;94760.44;;;12.97;100.00
55590;BME280;41452;42.780;23.116;2023-09-19T00:42:03;94755.78;;;12.99;100.00
55590;BME280;41452;42.780;23.116;2023-09-19T00:44:30;94754.38;;;12.96;100.00
55590;BME280;41452;42.780;23.116;2023-09-19T00:46:55;94751.75;;;12.96;100.00
55590;BME280;41452;42.780;23.116;2023-09-19T00:49:21;94749.91;;;12.97;100.00
55590;BME280;41452;42.780;23.116;2023-09-19T00:51:48;94742.25;;;12.95;100.00
55590;BME280;41452;42.780;23.116;2023-09-19T00:54:14;94759.88;;;12.94;100.00
55590;BME280;41452;42.780;23.116;2023-09-19T00:56:44;94756.59;;;12.87;100.00
55590;BME280;41452;42.780;23.116;2023-09-19T00:59:10;94754.06;;;12.92;100.00
55590;BME280;41452;42.780;23.116;2023-09-19T01:01:37;94735.06;;;12.79;100.00
55590;BME280;41452;42.780;23.116;2023-09-19T01:04:05;94757.16;;;12.89;100.00
55590;BME280;41452;42.780;23.116;2023-09-19T01:06:31;94757.88;;;12.85;100.00
55590;BME280;41452;42.780;23.116;2023-09-19T01:08:56;94761.88;;;12.87;100.00
55590;BME280;41452;42.780;23.116;2023-09-19T01:11:33;94741.28;;;12.72;100.00
55590;BME280;41452;42.780;23.116;2023-09-19T01:22:56;94757.03;;;12.96;100.00
55590;BME280;41452;42.780;23.116;2023-09-19T01:28:43;94738.19;;;12.76;100.00
55590;BME280;41452;42.780;23.116;2023-09-19T01:31:13;94763.72;;;12.87;100.00
55590;BME280;41452;42.780;23.116;2023-09-19T01:33:54;94757.53;;;12.81;100.00
55590;BME280;41452;42.780;23.116;2023-09-19T01:36:23;94762.81;;;12.81;100.00
55590;BME280;41452;42.780;23.116;2023-09-19T01:38:50;94758.91;;;12.84;100.00
55590;BME280;41452;42.780;23.116;2023-09-19T01:41:21;94758.91;;;12.84;100.00
55590;BME280;41452;42.780;23.116;2023-09-19T01:43:50;94753.53;;;12.79;100.00
55590;BME280;41452;42.780;23.116;2023-09-19T01:46:21;94757.88;;;12.85;100.00
55590;BME280;41452;42.780;23.116;2023-09-19T01:51:51;94757.53;;;12.81;100.00
55590;BME280;41452;42.780;23.116;2023-09-19T01:54:26;94752.28;;;12.81;100.00
55590;BME280;41452;42.780;23.116;2023-09-19T01:59:36;94749.41;;;12.83;100.00
55590;BME280;41452;42.780;23.116;2023-09-19T02:02:06;94744.38;;;12.81;100.00
55590;BME280;41452;42.780;23.116;2023-09-19T02:04:33;94755.81;;;12.75;100.00
55590;BME280;41452;42.780;23.116;2023-09-19T02:07:00;94751.50;;;12.69;100.00
55590;BME280;41452;42.780;23.116;2023-09-19T02:09:26;94746.69;;;12.66;100.00
55590;BME280;41452;42.780;23.116;2023-09-19T02:11:52;94745.06;;;12.65;100.00
55590;BME280;41452;42.780;23.116;2023-09-19T02:14:17;94753.78;;;12.65;100.00
55590;BME280;41452;42.780;23.116;2023-09-19T02:16:44;94750.25;;;12.60;100.00
55590;BME280;41452;42.780;23.116;2023-09-19T02:19:10;94743.72;;;12.62;100.00
55590;BME280;41452;42.780;23.116;2023-09-19T02:21:35;94744.75;;;12.61;100.00
55590;BME280;41452;42.780;23.116;2023-09-19T12:19:36;94464.69;;;21.86;80.45
55590;BME280;41452;42.780;23.116;2023-09-19T12:22:03;94442.72;;;21.75;78.72
55590;BME280;41452;42.780;23.116;2023-09-19T12:24:34;94462.78;;;22.00;78.03
55590;BME280;41452;42.780;23.116;2023-09-19T12:27:06;94445.97;;;21.86;78.70
55590;BME280;41452;42.780;23.116;2023-09-19T12:29:44;94449.91;;;22.02;79.21
55590;BME280;41452;42.780;23.116;2023-09-19T12:32:10;94453.06;;;22.05;77.39
55590;BME280;41452;42.780;23.116;2023-09-19T12:34:36;94448.81;;;22.03;78.65
55590;BME280;41452;42.780;23.116;2023-09-19T12:39:46;94449.00;;;22.07;77.27
55590;BME280;41452;42.780;23.116;2023-09-19T12:42:15;94456.84;;;22.03;79.16
55590;BME280;41452;42.780;23.116;2023-09-19T12:44:42;94432.69;;;22.09;81.48
55590;BME280;41452;42.780;23.116;2023-09-19T12:47:16;94448.88;;;22.26;77.17
55590;BME280;41452;42.780;23.116;2023-09-19T12:50:11;94442.94;;;22.29;78.02
55590;BME280;41452;42.780;23.116;2023-09-19T12:52:48;94447.00;;;22.40;76.87
55590;BME280;41452;42.780;23.116;2023-09-19T12:57:56;94424.84;;;22.49;75.44
55590;BME280;41452;42.780;23.116;2023-09-19T13:05:50;94426.22;;;22.60;74.39
55590;BME280;41452;42.780;23.116;2023-09-19T13:13:43;94394.94;;;22.47;73.51
55590;BME280;41452;42.780;23.116;2023-09-19T13:16:10;94423.41;;;22.65;73.47
55590;BME280;41452;42.780;23.116;2023-09-19T13:18:57;94405.16;;;22.67;72.36
55590;BME280;41452;42.780;23.116;2023-09-19T13:21:31;94411.66;;;22.75;73.31
55590;BME280;41452;42.780;23.116;2023-09-19T13:24:24;94399.34;;;22.74;71.56
55590;BME280;41452;42.780;23.116;2023-09-19T13:26:54;94395.78;;;22.78;70.70
55590;BME280;41452;42.780;23.116;2023-09-19T13:29:19;94410.97;;;22.92;70.29
55590;BME280;41452;42.780;23.116;2023-09-19T13:31:48;94422.66;;;22.96;70.62
55590;BME280;41452;42.780;23.116;2023-09-19T13:34:14;94390.78;;;22.86;72.82
55590;BME280;41452;42.780;23.116;2023-09-19T13:36:41;94417.13;;;22.92;71.77
55590;BME280;41452;42.780;23.116;2023-09-19T13:39:07;94417.31;;;22.96;71.40
55590;BME280;41452;42.780;23.116;2023-09-19T13:41:35;94408.03;;;23.02;72.98
55590;BME280;41452;42.780;23.116;2023-09-19T13:44:02;94388.09;;;22.86;73.86
55590;BME280;41452;42.780;23.116;2023-09-19T13:46:28;94383.22;;;22.88;69.30
55590;BME280;41452;42.780;23.116;2023-09-19T13:48:53;94402.19;;;23.00;70.24
55590;BME280;41452;42.780;23.116;2023-09-19T13:51:20;94407.19;;;22.93;71.57
55590;BME280;41452;42.780;23.116;2023-09-19T13:53:48;94377.69;;;22.84;69.70
55590;BME280;41452;42.780;23.116;2023-09-19T13:56:13;94401.41;;;23.00;71.54
55590;BME280;41452;42.780;23.116;2023-09-19T13:58:39;94389.81;;;22.82;71.44
55590;BME280;41452;42.780;23.116;2023-09-19T14:01:07;94390.28;;;22.84;71.92
55590;BME280;41452;42.780;23.116;2023-09-19T14:03:37;94405.97;;;22.99;72.25
55590;BME280;41452;42.780;23.116;2023-09-19T14:06:03;94398.97;;;22.89;70.77
55590;BME280;41452;42.780;23.116;2023-09-19T14:08:28;94407.81;;;22.90;71.01
55590;BME280;41452;42.780;23.116;2023-09-19T14:10:54;94390.03;;;22.94;70.04
55590;BME280;41452;42.780;23.116;2023-09-19T14:13:19;94392.09;;;22.97;73.97
55590;BME280;41452;42.780;23.116;2023-09-19T14:15:46;94351.28;;;22.60;71.14
55590;BME280;41452;42.780;23.116;2023-09-19T19:22:49;94525.50;;;17.68;100.00
55590;BME280;41452;42.780;23.116;2023-09-19T19:25:15;94522.59;;;17.60;100.00
55590;BME280;41452;42.780;23.116;2023-09-19T19:27:40;94540.06;;;17.71;100.00
55590;BME280;41452;42.780;23.116;2023-09-19T19:30:06;94549.38;;;17.74;100.00
55590;BME280;41452;42.780;23.116;2023-09-19T19:32:32;94532.41;;;17.70;100.00
55590;BME280;41452;42.780;23.116;2023-09-19T19:34:57;94545.88;;;17.83;100.00
55590;BME280;41452;42.780;23.116;2023-09-19T19:37:22;94525.22;;;17.75;100.00
55590;BME280;41452;42.780;23.116;2023-09-19T19:39:48;94550.69;;;17.81;100.00
55590;BME280;41452;42.780;23.116;2023-09-19T19:42:13;94584.97;;;17.88;100.00
55590;BME280;41452;42.780;23.116;2023-09-19T19:44:39;94580.41;;;17.83;100.00
55590;BME280;41452;42.780;23.116;2023-09-19T19:47:04;94557.63;;;17.67;100.00
55590;BME280;41452;42.780;23.116;2023-09-19T19:49:30;94601.66;;;17.83;100.00
55590;BME280;41452;42.780;23.116;2023-09-19T19:51:55;94629.34;;;17.88;100.00
55590;BME280;41452;42.780;23.116;2023-09-19T19:54:21;94635.69;;;17.71;100.00
55590;BME280;41452;42.780;23.116;2023-09-19T19:56:47;94644.22;;;17.63;100.00
55590;BME280;41452;42.780;23.116;2023-09-19T19:59:12;94652.16;;;17.47;100.00
55590;BME280;41452;42.780;23.116;2023-09-19T20:01:39;94658.56;;;17.41;100.00
55590;BME280;41452;42.780;23.116;2023-09-19T20:04:04;94670.47;;;17.34;100.00
55590;BME280;41452;42.780;23.116;2023-09-19T20:06:30;94688.53;;;17.37;100.00
55590;BME280;41452;42.780;23.116;2023-09-19T20:08:55;94685.59;;;17.28;100.00
55590;BME280;41452;42.780;23.116;2023-09-19T20:11:23;94692.53;;;17.29;100.00
55590;BME280;41452;42.780;23.116;2023-09-19T20:13:54;94689.84;;;17.14;100.00
55590;BME280;41452;42.780;23.116;2023-09-19T20:16:19;94685.59;;;17.18;100.00
55590;BME280;41452;42.780;23.116;2023-09-19T20:18:45;94718.25;;;17.23;100.00
55590;BME280;41452;42.780;23.116;2023-09-19T20:21:11;94732.06;;;17.25;100.00
55590;BME280;41452;42.780;23.116;2023-09-19T20:23:39;94741.06;;;17.19;100.00
55590;BME280;41452;42.780;23.116;2023-09-19T20:26:07;94697.50;;;16.89;100.00
55590;BME280;41452;42.780;23.116;2023-09-19T20:28:33;94737.31;;;17.05;100.00
55590;BME280;41452;42.780;23.116;2023-09-19T20:44:05;94751.03;;;17.85;100.00
55590;BME280;41452;42.780;23.116;2023-09-19T20:46:31;94754.69;;;17.79;100.00
55590;BME280;41452;42.780;23.116;2023-09-19T20:48:56;94763.47;;;17.70;100.00
55590;BME280;41452;42.780;23.116;2023-09-19T20:51:22;94758.41;;;17.68;100.00
55590;BME280;41452;42.780;23.116;2023-09-19T20:53:52;94751.47;;;17.57;100.00
55590;BME280;41452;42.780;23.116;2023-09-19T20:56:18;94729.69;;;17.49;100.00
55590;BME280;41452;42.780;23.116;2023-09-19T20:58:44;94733.44;;;17.69;100.00
55590;BME280;41452;42.780;23.116;2023-09-19T21:01:09;94702.34;;;17.49;100.00
55590;BME280;41452;42.780;23.116;2023-09-19T21:03:37;94712.75;;;17.66;100.00
55590;BME280;41452;42.780;23.116;2023-09-19T21:06:10;94677.66;;;17.64;100.00
55590;BME280;41452;42.780;23.116;2023-09-19T21:08:39;94641.03;;;17.56;100.00
55590;BME280;41452;42.780;23.116;2023-09-19T21:11:17;94664.38;;;17.69;100.00
55590;BME280;41452;42.780;23.116;2023-09-19T21:13:45;94667.84;;;17.59;100.00
55590;BME280;41452;42.780;23.116;2023-09-19T21:16:11;94654.31;;;17.56;100.00
55590;BME280;41452;42.780;23.116;2023-09-19T21:18:37;94613.69;;;17.55;100.00
55590;BME280;41452;42.780;23.116;2023-09-19T21:21:04;94532.22;;;17.20;100.00
55590;BME280;41452;42.780;23.116;2023-09-19T21:23:35;94500.91;;;16.86;100.00
55590;BME280;41452;42.780;23.116;2023-09-19T21:26:00;94557.41;;;17.07;100.00
55590;BME280;41452;42.780;23.116;2023-09-19T21:28:26;94584.75;;;16.97;100.00
55590;BME280;41452;42.780;23.116;2023-09-19T21:31:00;94605.19;;;16.97;100.00
55590;BME280;41452;42.780;23.116;2023-09-19T21:33:29;94615.00;;;17.01;100.00
55590;BME280;41452;42.780;23.116;2023-09-19T21:35:55;94620.53;;;16.95;100.00
55590;BME280;41452;42.780;23.116;2023-09-19T21:38:21;94631.97;;;17.00;100.00
55590;BME280;41452;42.780;23.116;2023-09-19T21:40:46;94644.69;;;17.03;100.00
55590;BME280;41452;42.780;23.116;2023-09-19T21:43:12;94658.50;;;17.10;100.00
55590;BME280;41452;42.780;23.116;2023-09-19T21:45:37;94645.25;;;17.10;100.00
55590;BME280;41452;42.780;23.116;2023-09-19T21:48:03;94640.47;;;17.07;100.00
55590;BME280;41452;42.780;23.116;2023-09-19T21:50:29;94625.09;;;17.04;100.00
55590;BME280;41452;42.780;23.116;2023-09-19T21:52:58;94633.28;;;16.98;100.00
55590;BME280;41452;42.780;23.116;2023-09-19T21:55:30;94632.75;;;16.96;100.00
55590;BME280;41452;42.780;23.116;2023-09-19T21:57:56;94618.63;;;16.80;100.00
55590;BME280;41452;42.780;23.116;2023-09-19T22:00:23;94624.25;;;16.88;100.00
55590;BME280;41452;42.780;23.116;2023-09-19T22:02:59;94630.09;;;16.96;100.00
55590;BME280;41452;42.780;23.116;2023-09-19T22:05:26;94639.66;;;16.91;100.00
55590;BME280;41452;42.780;23.116;2023-09-19T22:07:51;94642.06;;;16.93;100.00
55590;BME280;41452;42.780;23.116;2023-09-19T22:10:16;94630.63;;;16.92;100.00
55590;BME280;41452;42.780;23.116;2023-09-19T22:12:42;94621.88;;;16.97;100.00
55590;BME280;41452;42.780;23.116;2023-09-19T22:15:09;94621.34;;;17.05;100.00
55590;BME280;41452;42.780;23.116;2023-09-19T22:17:38;94623.22;;;17.05;100.00
55590;BME280;41452;42.780;23.116;2023-09-19T22:20:05;94627.22;;;17.07;100.00
55590;BME280;41452;42.780;23.116;2023-09-19T22:22:43;94601.19;;;16.99;100.00
55590;BME280;41452;42.780;23.116;2023-09-19T22:25:09;94627.19;;;17.18;100.00
55590;BME280;41452;42.780;23.116;2023-09-19T22:27:35;94625.38;;;17.23;100.00
55590;BME280;41452;42.780;23.116;2023-09-19T22:30:00;94632.25;;;17.24;100.00
55590;BME280;41452;42.780;23.116;2023-09-19T22:32:26;94607.81;;;17.07;100.00
55590;BME280;41452;42.780;23.116;2023-09-19T22:34:53;94636.00;;;17.23;100.00
55590;BME280;41452;42.780;23.116;2023-09-19T22:37:19;94645.78;;;17.28;100.00
55590;BME280;41452;42.780;23.116;2023-09-19T22:39:46;94633.06;;;17.20;100.00
55590;BME280;41452;42.780;23.116;2023-09-19T22:42:12;94634.91;;;17.29;100.00
55590;BME280;41452;42.780;23.116;2023-09-19T22:44:38;94612.88;;;17.14;100.00
55590;BME280;41452;42.780;23.116;2023-09-19T22:47:04;94625.63;;;17.27;100.00
55590;BME280;41452;42.780;23.116;2023-09-19T22:49:30;94627.22;;;17.28;100.00
55590;BME280;41452;42.780;23.116;2023-09-19T22:51:57;94627.47;;;17.26;100.00
55590;BME280;41452;42.780;23.116;2023-09-19T22:54:25;94632.78;;;17.26;100.00
55590;BME280;41452;42.780;23.116;2023-09-19T22:56:52;94638.91;;;17.27;100.00
55590;BME280;41452;42.780;23.116;2023-09-19T22:59:21;94629.88;;;17.28;100.00
55590;BME280;41452;42.780;23.116;2023-09-19T23:01:46;94612.88;;;17.19;100.00
55590;BME280;41452;42.780;23.116;2023-09-19T23:04:15;94614.22;;;17.32;100.00
55590;BME280;41452;42.780;23.116;2023-09-19T23:06:47;94612.91;;;17.29;100.00
55590;BME280;41452;42.780;23.116;2023-09-19T23:09:25;94622.16;;;17.26;100.00
55590;BME280;41452;42.780;23.116;2023-09-19T23:11:58;94619.81;;;17.20;100.00
55590;BME280;41452;42.780;23.116;2023-09-19T23:14:37;94631.47;;;17.24;100.00
55590;BME280;41452;42.780;23.116;2023-09-19T23:17:07;94613.69;;;17.09;100.00
55590;BME280;41452;42.780;23.116;2023-09-19T23:19:43;94627.50;;;17.16;100.00
55590;BME280;41452;42.780;23.116;2023-09-19T23:22:14;94630.94;;;17.22;100.00
55590;BME280;41452;42.780;23.116;2023-09-19T23:24:43;94628.28;;;17.17;100.00
55590;BME280;41452;42.780;23.116;2023-09-19T23:27:09;94603.34;;;17.02;100.00
55590;BME280;41452;42.780;23.116;2023-09-19T23:29:43;94622.72;;;17.13;100.00
55590;BME280;41452;42.780;23.116;2023-09-19T23:32:09;94628.81;;;17.14;100.00
55590;BME280;41452;42.780;23.116;2023-09-19T23:34:38;94627.72;;;17.04;100.00
55590;BME280;41452;42.780;23.116;2023-09-19T23:37:04;94634.09;;;17.03;100.00
55590;BME280;41452;42.780;23.116;2023-09-19T23:39:30;94630.38;;;17.04;100.00
55590;BME280;41452;42.780;23.116;2023-09-19T23:41:56;94609.66;;;16.91;100.00
55590;BME280;41452;42.780;23.116;2023-09-19T23:44:26;94623.19;;;16.95;100.00
55590;BME280;41452;42.780;23.116;2023-09-19T23:46:53;94631.44;;;16.98;100.00
55590;BME280;41452;42.780;23.116;2023-09-19T23:49:21;94638.31;;;16.94;100.00
55590;BME280;41452;42.780;23.116;2023-09-19T23:51:46;94634.34;;;16.91;100.00
55590;BME280;41452;42.780;23.116;2023-09-19T23:54:13;94623.72;;;16.86;100.00
55590;BME280;41452;42.780;23.116;2023-09-19T23:56:49;94635.66;;;16.89;100.00
55590;BME280;41452;42.780;23.116;2023-09-19T23:59:16;94610.94;;;16.73;100.00
